createdAt,value
2019-05-01T00:00:16.557Z,62.60
2019-05-01T00:01:10.651Z,62.60
2019-05-01T00:02:08.148Z,62.60
2019-05-01T00:03:05.066Z,62.60
2019-05-01T00:04:10.209Z,63.00
2019-05-01T00:05:10.329Z,63.10
2019-05-01T00:06:06.812Z,63.10
2019-05-01T00:07:10.854Z,63.20
2019-05-01T00:08:10.896Z,63.40
2019-05-01T00:09:10.878Z,63.40
2019-05-01T00:10:10.860Z,63.50
2019-05-01T00:11:07.330Z,63.50
2019-05-01T00:12:05.185Z,63.70
2019-05-01T00:13:10.908Z,63.60
2019-05-01T00:14:07.390Z,63.60
2019-05-01T00:15:07.062Z,63.70
2019-05-01T00:16:05.017Z,63.70
2019-05-01T00:17:05.098Z,64.00
2019-05-01T00:18:07.358Z,64.10
2019-05-01T00:19:06.877Z,64.10
2019-05-01T00:20:07.343Z,64.00
2019-05-01T00:21:06.897Z,64.10
2019-05-01T00:22:10.890Z,64.30
2019-05-01T00:23:07.379Z,64.30
2019-05-01T00:24:10.581Z,64.50
2019-05-01T00:25:10.665Z,64.40
2019-05-01T00:26:07.088Z,64.40
2019-05-01T00:27:05.181Z,64.40
2019-05-01T00:28:07.992Z,64.90
2019-05-01T00:29:04.957Z,64.70
2019-05-01T00:30:07.352Z,64.90
2019-05-01T00:31:06.890Z,64.70
2019-05-01T00:32:07.359Z,64.70
2019-05-01T00:33:06.862Z,65.00
2019-05-01T00:34:07.331Z,65.10
2019-05-01T00:35:06.907Z,65.00
2019-05-01T00:36:07.393Z,64.90
2019-05-01T00:37:07.942Z,65.10
2019-05-01T00:38:07.369Z,65.10
2019-05-01T00:39:07.982Z,65.40
2019-05-01T00:40:09.961Z,65.50
2019-05-01T00:41:07.378Z,65.50
2019-05-01T00:42:07.060Z,65.60
2019-05-01T00:43:05.075Z,65.90
2019-05-01T00:44:05.182Z,65.80
2019-05-01T00:45:05.193Z,65.80
2019-05-01T00:46:07.098Z,65.80
2019-05-01T00:47:07.527Z,65.70
2019-05-01T00:48:06.927Z,65.70
2019-05-01T00:49:07.559Z,65.80
2019-05-01T00:50:07.061Z,65.90
2019-05-01T00:51:05.013Z,65.80
2019-05-01T00:52:05.158Z,65.80
2019-05-01T00:53:07.817Z,65.60
2019-05-01T00:54:07.263Z,65.60
2019-05-01T00:55:05.222Z,65.60
2019-05-01T00:56:07.818Z,65.50
2019-05-01T00:57:10.926Z,65.50
2019-05-01T00:58:07.418Z,65.50
2019-05-01T00:59:08.023Z,65.50
2019-05-01T01:00:04.953Z,65.50
2019-05-01T01:01:05.010Z,65.50
2019-05-01T01:02:05.077Z,65.40
2019-05-01T01:03:05.254Z,65.60
2019-05-01T01:04:10.451Z,65.50
2019-05-01T01:05:06.937Z,65.50
2019-05-01T01:06:05.035Z,65.50
2019-05-01T01:07:05.124Z,65.60
2019-05-01T01:08:07.802Z,65.40
2019-05-01T01:09:07.222Z,65.40
2019-05-01T01:10:05.321Z,65.40
2019-05-01T01:11:10.861Z,65.50
2019-05-01T01:12:08.323Z,65.50
2019-05-01T01:13:05.311Z,65.50
2019-05-01T01:14:07.429Z,65.60
2019-05-01T01:15:07.013Z,65.60
2019-05-01T01:16:04.983Z,65.60
2019-05-01T01:17:05.067Z,65.70
2019-05-01T01:18:05.122Z,65.80
2019-05-01T01:19:05.096Z,65.90
2019-05-01T01:20:10.321Z,65.90
2019-05-01T01:21:06.867Z,65.90
2019-05-01T01:22:07.382Z,66.00
2019-05-01T01:23:06.959Z,66.00
2019-05-01T01:24:04.890Z,65.90
2019-05-01T01:25:04.993Z,65.80
2019-05-01T01:26:07.520Z,65.80
2019-05-01T01:27:06.938Z,65.80
2019-05-01T01:28:07.417Z,65.80
2019-05-01T01:29:08.298Z,65.90
2019-05-01T01:30:05.265Z,65.90
2019-05-01T01:31:04.971Z,65.90
2019-05-01T01:32:05.111Z,65.80
2019-05-01T01:33:07.400Z,65.90
2019-05-01T01:34:06.972Z,65.90
2019-05-01T01:35:04.924Z,65.80
2019-05-01T01:36:05.102Z,65.80
2019-05-01T01:37:10.422Z,65.80
2019-05-01T01:38:05.361Z,65.80
2019-05-01T01:39:05.089Z,65.90
2019-05-01T01:40:05.154Z,65.90
2019-05-01T01:41:05.208Z,65.90
2019-05-01T01:42:04.979Z,65.90
2019-05-01T01:43:07.742Z,65.90
2019-05-01T01:44:13.230Z,65.90
2019-05-01T01:45:05.112Z,65.90
2019-05-01T01:46:05.099Z,65.90
2019-05-01T01:47:04.921Z,66.00
2019-05-01T01:48:05.062Z,66.10
2019-05-01T01:49:07.668Z,66.00
2019-05-01T01:50:07.135Z,66.00
2019-05-01T01:51:05.153Z,66.10
2019-05-01T01:52:07.753Z,65.90
2019-05-01T01:53:07.234Z,65.90
2019-05-01T01:54:05.210Z,66.00
2019-05-01T01:55:04.926Z,65.90
2019-05-01T01:56:05.082Z,65.90
2019-05-01T01:57:10.238Z,66.30
2019-05-01T01:58:05.162Z,66.30
2019-05-01T01:59:05.167Z,66.20
2019-05-01T02:00:05.172Z,66.40
2019-05-01T02:01:10.132Z,66.50
2019-05-01T02:02:07.745Z,66.60
2019-05-01T02:03:07.268Z,66.60
2019-05-01T02:04:05.346Z,66.60
2019-05-01T02:05:07.321Z,66.70
2019-05-01T02:06:10.322Z,67.10
2019-05-01T02:07:05.171Z,67.10
2019-05-01T02:08:05.241Z,67.30
2019-05-01T02:09:07.837Z,67.60
2019-05-01T02:10:07.447Z,67.60
2019-05-01T02:11:06.966Z,67.70
2019-05-01T02:12:04.925Z,68.00
2019-05-01T02:13:07.455Z,68.00
2019-05-01T02:14:05.332Z,68.00
2019-05-01T02:15:05.127Z,67.90
2019-05-01T02:16:05.222Z,67.90
2019-05-01T02:17:05.324Z,68.00
2019-05-01T02:18:07.548Z,68.30
2019-05-01T02:19:07.011Z,68.30
2019-05-01T02:20:07.424Z,68.40
2019-05-01T02:21:06.979Z,68.50
2019-05-01T02:22:07.450Z,68.60
2019-05-01T02:23:06.959Z,68.60
2019-05-01T02:24:05.198Z,68.60
2019-05-01T02:25:05.267Z,68.60
2019-05-01T02:26:07.993Z,69.00
2019-05-01T02:27:07.468Z,69.10
2019-05-01T02:28:06.972Z,69.10
2019-05-01T02:29:05.102Z,69.20
2019-05-01T02:30:05.290Z,69.00
2019-05-01T02:31:07.556Z,68.90
2019-05-01T02:32:07.023Z,68.90
2019-05-01T02:33:04.973Z,68.90
2019-05-01T02:34:05.027Z,69.00
2019-05-01T02:35:10.729Z,69.10
2019-05-01T02:36:07.156Z,68.90
2019-05-01T02:37:07.802Z,69.30
2019-05-01T02:38:08.318Z,69.60
2019-05-01T02:39:05.392Z,69.60
2019-05-01T02:40:04.921Z,69.50
2019-05-01T02:41:04.971Z,66.30
2019-05-01T02:42:05.112Z,69.60
2019-05-01T02:43:05.363Z,69.40
2019-05-01T02:44:13.103Z,69.80
2019-05-01T02:45:07.518Z,70.10
2019-05-01T02:46:05.407Z,70.10
2019-05-01T02:47:04.908Z,70.30
2019-05-01T02:48:04.942Z,70.50
2019-05-01T02:49:05.402Z,70.60
2019-05-01T02:50:10.179Z,71.00
2019-05-01T02:51:07.486Z,71.00
2019-05-01T02:52:07.038Z,71.30
2019-05-01T02:53:07.730Z,71.60
2019-05-01T02:54:08.333Z,71.70
2019-05-01T02:55:05.298Z,71.70
2019-05-01T02:56:05.320Z,71.80
2019-05-01T02:57:05.051Z,72.00
2019-05-01T02:58:05.134Z,72.20
2019-05-01T02:59:05.182Z,72.30
2019-05-01T03:00:05.249Z,72.50
2019-05-01T03:01:07.930Z,72.60
2019-05-01T03:02:07.358Z,72.60
2019-05-01T03:03:06.970Z,72.70
2019-05-01T03:04:10.098Z,72.80
2019-05-01T03:05:07.597Z,72.80
2019-05-01T03:06:07.052Z,72.80
2019-05-01T03:07:07.390Z,72.90
2019-05-01T03:08:05.396Z,73.00
2019-05-01T03:09:05.115Z,73.20
2019-05-01T03:10:09.890Z,73.20
2019-05-01T03:11:05.056Z,73.20
2019-05-01T03:12:07.642Z,73.20
2019-05-01T03:13:07.069Z,73.30
2019-05-01T03:14:05.305Z,73.30
2019-05-01T03:15:13.026Z,73.70
2019-05-01T03:16:04.958Z,73.70
2019-05-01T03:17:05.049Z,73.60
2019-05-01T03:18:05.353Z,73.60
2019-05-01T03:19:07.026Z,73.70
2019-05-01T03:20:05.004Z,73.70
2019-05-01T03:21:05.169Z,73.70
2019-05-01T03:22:07.905Z,73.80
2019-05-01T03:23:08.404Z,73.90
2019-05-01T03:24:08.004Z,73.90
2019-05-01T03:25:07.595Z,73.90
2019-05-01T03:26:07.093Z,73.90
2019-05-01T03:27:07.621Z,74.00
2019-05-01T03:28:08.083Z,74.20
2019-05-01T03:29:07.559Z,74.20
2019-05-01T03:30:07.057Z,74.00
2019-05-01T03:31:05.055Z,74.20
2019-05-01T03:32:19.350Z,74.20
2019-05-01T03:33:07.250Z,74.20
2019-05-01T03:34:07.798Z,74.30
2019-05-01T03:35:07.332Z,74.30
2019-05-01T03:36:07.969Z,74.40
2019-05-01T03:37:07.076Z,74.40
2019-05-01T03:38:07.585Z,74.40
2019-05-01T03:39:10.656Z,74.60
2019-05-01T03:40:07.087Z,74.60
2019-05-01T03:41:12.878Z,74.70
2019-05-01T03:42:07.389Z,74.70
2019-05-01T03:43:07.996Z,74.80
2019-05-01T03:44:07.508Z,74.90
2019-05-01T03:45:08.135Z,75.00
2019-05-01T03:46:05.131Z,75.00
2019-05-01T03:47:07.765Z,75.20
2019-05-01T03:48:07.215Z,75.20
2019-05-01T03:49:07.729Z,75.30
2019-05-01T03:50:07.093Z,75.30
2019-05-01T03:51:07.637Z,75.40
2019-05-01T03:52:07.096Z,75.40
2019-05-01T03:53:07.027Z,75.40
2019-05-01T03:54:07.995Z,75.70
2019-05-01T03:55:04.956Z,75.70
2019-05-01T03:56:07.546Z,76.20
2019-05-01T03:57:07.006Z,76.30
2019-05-01T03:58:04.913Z,76.30
2019-05-01T03:59:05.268Z,76.50
2019-05-01T04:00:05.388Z,76.50
2019-05-01T04:01:08.080Z,76.50
2019-05-01T04:02:05.077Z,76.50
2019-05-01T04:03:05.195Z,76.50
2019-05-01T04:04:10.446Z,76.50
2019-05-01T04:05:05.470Z,76.50
2019-05-01T04:06:07.516Z,76.50
2019-05-01T04:07:05.438Z,76.50
2019-05-01T04:08:05.160Z,76.40
2019-05-01T04:09:05.328Z,76.40
2019-05-01T04:10:07.837Z,76.40
2019-05-01T04:11:10.838Z,76.40
2019-05-01T04:12:07.312Z,76.40
2019-05-01T04:13:05.240Z,76.30
2019-05-01T04:14:05.251Z,76.30
2019-05-01T04:15:05.296Z,76.30
2019-05-01T04:16:05.315Z,76.30
2019-05-01T04:17:05.138Z,76.20
2019-05-01T04:18:05.230Z,76.30
2019-05-01T04:19:07.869Z,76.30
2019-05-01T04:20:07.437Z,76.30
2019-05-01T04:21:07.101Z,76.30
2019-05-01T04:22:07.615Z,76.30
2019-05-01T04:23:07.129Z,76.30
2019-05-01T04:24:07.582Z,76.40
2019-05-01T04:25:08.548Z,76.50
2019-05-01T04:26:07.692Z,76.40
2019-05-01T04:27:07.316Z,76.40
2019-05-01T04:28:07.873Z,76.60
2019-05-01T04:29:07.258Z,76.50
2019-05-01T04:30:07.839Z,76.70
2019-05-01T04:31:07.343Z,76.70
2019-05-01T04:32:05.254Z,76.80
2019-05-01T04:33:07.809Z,76.80
2019-05-01T04:34:07.254Z,76.80
2019-05-01T04:35:07.762Z,76.90
2019-05-01T04:36:07.323Z,76.90
2019-05-01T04:37:07.907Z,77.20
2019-05-01T04:38:08.374Z,77.30
2019-05-01T04:39:07.280Z,77.30
2019-05-01T04:40:07.890Z,77.30
2019-05-01T04:41:07.423Z,77.20
2019-05-01T04:42:07.948Z,77.50
2019-05-01T04:43:07.363Z,77.50
2019-05-01T04:44:07.897Z,77.60
2019-05-01T04:45:08.541Z,77.60
2019-05-01T04:46:10.718Z,77.50
2019-05-01T04:47:10.835Z,77.50
2019-05-01T04:48:10.856Z,77.60
2019-05-01T04:49:08.377Z,77.60
2019-05-01T04:50:07.905Z,77.60
2019-05-01T04:51:07.465Z,77.60
2019-05-01T04:52:05.491Z,77.80
2019-05-01T04:53:07.705Z,77.70
2019-05-01T04:54:07.071Z,77.70
2019-05-01T04:55:07.636Z,77.80
2019-05-01T04:56:08.350Z,78.40
2019-05-01T04:57:08.809Z,79.00
2019-05-01T04:58:10.731Z,79.40
2019-05-01T04:59:10.809Z,79.20
2019-05-01T05:00:07.339Z,79.20
2019-05-01T05:01:05.313Z,79.20
2019-05-01T05:02:07.576Z,79.10
2019-05-01T05:03:07.345Z,79.10
2019-05-01T05:04:07.957Z,79.00
2019-05-01T05:05:07.392Z,79.00
2019-05-01T05:06:05.416Z,79.00
2019-05-01T05:07:05.457Z,79.00
2019-05-01T05:08:08.107Z,78.90
2019-05-01T05:09:07.579Z,78.80
2019-05-01T05:10:07.085Z,78.80
2019-05-01T05:11:05.153Z,78.80
2019-05-01T05:12:05.367Z,79.00
2019-05-01T05:13:08.143Z,79.00
2019-05-01T05:14:10.721Z,78.90
2019-05-01T05:15:10.685Z,78.80
2019-05-01T05:16:08.228Z,78.80
2019-05-01T05:17:05.179Z,78.80
2019-05-01T05:18:05.346Z,78.90
2019-05-01T05:19:05.502Z,78.90
2019-05-01T05:20:07.097Z,78.90
2019-05-01T05:21:07.734Z,78.90
2019-05-01T05:22:07.171Z,78.80
2019-05-01T05:23:07.776Z,78.80
2019-05-01T05:24:07.318Z,78.80
2019-05-01T05:25:07.882Z,78.80
2019-05-01T05:26:07.395Z,78.80
2019-05-01T05:27:05.507Z,78.80
2019-05-01T05:28:07.109Z,78.80
2019-05-01T05:29:05.119Z,79.00
2019-05-01T05:30:07.751Z,79.00
2019-05-01T05:31:07.151Z,79.00
2019-05-01T05:32:05.181Z,79.00
2019-05-01T05:33:18.829Z,79.10
2019-05-01T05:34:07.591Z,79.20
2019-05-01T05:35:05.517Z,79.20
2019-05-01T05:36:05.181Z,79.20
2019-05-01T05:37:05.206Z,79.20
2019-05-01T05:38:05.325Z,79.10
2019-05-01T05:39:05.390Z,79.10
2019-05-01T05:40:05.529Z,79.10
2019-05-01T05:41:07.645Z,79.10
2019-05-01T05:42:08.266Z,79.10
2019-05-01T05:43:05.212Z,79.10
2019-05-01T05:44:05.245Z,79.20
2019-05-01T05:45:05.276Z,79.30
2019-05-01T05:46:07.841Z,79.60
2019-05-01T05:47:07.361Z,79.50
2019-05-01T05:48:05.456Z,79.40
2019-05-01T05:49:10.644Z,79.40
2019-05-01T05:50:07.097Z,79.40
2019-05-01T05:51:07.655Z,79.30
2019-05-01T05:52:05.580Z,79.30
2019-05-01T05:53:07.624Z,79.40
2019-05-01T05:54:08.104Z,79.40
2019-05-01T05:55:05.182Z,79.40
2019-05-01T05:56:05.312Z,79.40
2019-05-01T05:57:07.660Z,79.40
2019-05-01T05:58:07.191Z,79.40
2019-05-01T05:59:05.326Z,79.40
2019-05-01T06:00:10.648Z,79.60
2019-05-01T06:01:08.135Z,79.70
2019-05-01T06:02:05.153Z,79.90
2019-05-01T06:03:05.348Z,79.80
2019-05-01T06:04:05.433Z,79.90
2019-05-01T06:05:07.941Z,79.90
2019-05-01T06:06:04.892Z,79.90
2019-05-01T06:07:04.923Z,80.00
2019-05-01T06:08:12.685Z,80.30
2019-05-01T06:09:13.706Z,80.40
2019-05-01T06:10:08.280Z,80.60
2019-05-01T06:11:05.166Z,80.60
2019-05-01T06:12:10.757Z,80.70
2019-05-01T06:13:08.346Z,81.00
2019-05-01T06:14:05.286Z,81.00
2019-05-01T06:15:07.637Z,80.90
2019-05-01T06:16:16.115Z,80.80
2019-05-01T06:17:08.018Z,80.80
2019-05-01T06:18:07.399Z,80.70
2019-05-01T06:19:09.623Z,80.90
2019-05-01T06:20:10.873Z,80.90
2019-05-01T06:21:08.473Z,80.90
2019-05-01T06:22:11.598Z,80.90
2019-05-01T06:23:07.201Z,80.90
2019-05-01T06:24:07.410Z,80.90
2019-05-01T06:25:22.251Z,80.80
2019-05-01T06:26:08.089Z,81.00
2019-05-01T06:27:13.653Z,81.00
2019-05-01T06:28:07.523Z,81.10
2019-05-01T06:29:15.843Z,81.30
2019-05-01T06:30:10.969Z,81.20
2019-05-01T06:31:07.891Z,81.30
2019-05-01T06:32:08.320Z,81.40
2019-05-01T06:33:11.274Z,81.40
2019-05-01T06:34:07.859Z,81.20
2019-05-01T06:35:07.216Z,81.20
2019-05-01T06:36:13.147Z,81.20
2019-05-01T06:37:05.227Z,81.20
2019-05-01T06:38:07.873Z,81.30
2019-05-01T06:39:13.090Z,81.30
2019-05-01T06:40:10.264Z,81.50
2019-05-01T06:41:07.162Z,81.50
2019-05-01T06:42:05.026Z,81.50
2019-05-01T06:43:11.640Z,81.20
2019-05-01T06:44:07.914Z,81.20
2019-05-01T06:45:07.674Z,81.10
2019-05-01T06:46:13.335Z,81.00
2019-05-01T06:47:05.502Z,81.10
2019-05-01T06:48:05.609Z,81.10
2019-05-01T06:49:07.410Z,81.00
2019-05-01T06:50:07.657Z,81.00
2019-05-01T06:51:18.854Z,80.90
2019-05-01T06:52:07.690Z,81.00
2019-05-01T06:53:07.554Z,80.90
2019-05-01T06:54:16.077Z,81.10
2019-05-01T06:55:10.654Z,81.10
2019-05-01T06:56:07.185Z,81.10
2019-05-01T06:57:08.003Z,81.00
2019-05-01T06:58:07.683Z,81.00
2019-05-01T06:59:07.711Z,81.00
2019-05-01T07:00:09.420Z,81.00
2019-05-01T07:01:07.251Z,80.90
2019-05-01T07:02:05.597Z,81.00
2019-05-01T07:03:10.375Z,81.10
2019-05-01T07:04:07.668Z,81.50
2019-05-01T07:05:16.420Z,81.80
2019-05-01T07:06:14.739Z,81.80
2019-05-01T07:07:25.403Z,81.80
2019-05-01T07:08:07.407Z,81.70
2019-05-01T07:09:17.281Z,81.40
2019-05-01T07:10:08.052Z,81.10
2019-05-01T07:11:05.137Z,81.10
2019-05-01T07:12:08.053Z,80.80
2019-05-01T07:13:07.447Z,80.80
2019-05-01T07:14:17.702Z,80.20
2019-05-01T07:15:08.372Z,79.90
2019-05-01T07:16:10.540Z,79.70
2019-05-01T07:17:13.485Z,79.60
2019-05-01T07:18:07.682Z,79.50
2019-05-01T07:19:07.531Z,79.50
2019-05-01T07:20:16.656Z,79.20
2019-05-01T07:21:05.354Z,79.20
2019-05-01T07:22:07.505Z,79.10
2019-05-01T07:23:07.513Z,79.10
2019-05-01T07:24:05.602Z,79.00
2019-05-01T07:25:07.183Z,79.00
2019-05-01T07:26:05.307Z,78.90
2019-05-01T07:27:05.553Z,78.80
2019-05-01T07:28:15.983Z,78.60
2019-05-01T07:29:10.955Z,78.60
2019-05-01T07:30:08.376Z,78.60
2019-05-01T07:31:07.395Z,78.50
2019-05-01T07:32:07.539Z,78.50
2019-05-01T07:33:11.677Z,78.50
2019-05-01T07:34:17.123Z,78.50
2019-05-01T07:35:05.443Z,78.50
2019-05-01T07:36:14.838Z,78.40
2019-05-01T07:37:07.181Z,78.40
2019-05-01T07:38:08.029Z,78.50
2019-05-01T07:39:14.588Z,78.50
2019-05-01T07:40:07.309Z,78.50
2019-05-01T07:41:05.597Z,78.50
2019-05-01T07:42:12.329Z,78.40
2019-05-01T07:43:07.290Z,78.40
2019-05-01T07:44:05.425Z,78.40
2019-05-01T07:45:10.394Z,78.40
2019-05-01T07:46:07.313Z,78.50
2019-05-01T07:47:18.183Z,78.50
2019-05-01T07:48:07.478Z,78.50
2019-05-01T07:49:18.811Z,78.50
2019-05-01T07:50:08.431Z,78.60
2019-05-01T07:51:08.820Z,78.60
2019-05-01T07:52:07.742Z,78.60
2019-05-01T07:53:07.326Z,78.60
2019-05-01T07:54:09.236Z,78.70
2019-05-01T07:55:05.553Z,78.70
2019-05-01T07:56:05.429Z,78.70
2019-05-01T07:57:08.258Z,78.70
2019-05-01T07:58:05.370Z,78.70
2019-05-01T07:59:05.676Z,78.70
2019-05-01T08:00:08.737Z,78.70
2019-05-01T08:01:08.087Z,78.80
2019-05-01T08:02:07.864Z,78.90
2019-05-01T08:03:08.390Z,78.90
2019-05-01T08:04:08.357Z,79.00
2019-05-01T08:05:11.744Z,79.00
2019-05-01T08:06:07.546Z,79.20
2019-05-01T08:07:08.288Z,79.20
2019-05-01T08:08:09.546Z,79.20
2019-05-01T08:09:11.168Z,79.10
2019-05-01T08:10:07.294Z,79.10
2019-05-01T08:11:10.453Z,79.00
2019-05-01T08:12:08.304Z,79.20
2019-05-01T08:13:07.992Z,79.20
2019-05-01T08:14:11.881Z,79.20
2019-05-01T08:15:05.411Z,79.10
2019-05-01T08:16:09.496Z,79.10
2019-05-01T08:17:07.490Z,79.20
2019-05-01T08:18:07.245Z,79.20
2019-05-01T08:19:07.599Z,79.10
2019-05-01T08:20:17.174Z,79.00
2019-05-01T08:21:07.824Z,78.90
2019-05-01T08:22:08.328Z,78.80
2019-05-01T08:23:11.993Z,79.00
2019-05-01T08:24:09.159Z,78.80
2019-05-01T08:25:05.390Z,78.90
2019-05-01T08:26:10.275Z,78.90
2019-05-01T08:27:08.089Z,78.70
2019-05-01T08:28:05.250Z,78.70
2019-05-01T08:29:08.106Z,78.60
2019-05-01T08:30:05.329Z,78.70
2019-05-01T08:31:05.643Z,78.70
2019-05-01T08:32:07.927Z,78.70
2019-05-01T08:33:05.250Z,78.70
2019-05-01T08:34:10.602Z,78.60
2019-05-01T08:35:08.187Z,78.60
2019-05-01T08:36:13.438Z,78.40
2019-05-01T08:37:07.548Z,78.40
2019-05-01T08:38:07.333Z,78.20
2019-05-01T08:39:10.820Z,78.00
2019-05-01T08:40:05.443Z,77.40
2019-05-01T08:41:07.352Z,77.40
2019-05-01T08:42:08.167Z,77.30
2019-05-01T08:43:07.859Z,77.00
2019-05-01T08:44:10.904Z,76.60
2019-05-01T08:45:07.510Z,76.60
2019-05-01T08:46:07.360Z,76.10
2019-05-01T08:47:05.567Z,75.40
2019-05-01T08:48:07.838Z,75.20
2019-05-01T08:49:11.285Z,75.20
2019-05-01T08:50:08.212Z,74.50
2019-05-01T08:51:07.914Z,73.70
2019-05-01T08:52:14.007Z,73.80
2019-05-01T08:53:07.808Z,72.70
2019-05-01T08:54:07.491Z,72.60
2019-05-01T08:55:10.878Z,72.60
2019-05-01T08:56:05.075Z,72.80
2019-05-01T08:57:08.311Z,73.20
2019-05-01T08:58:13.865Z,73.20
2019-05-01T08:59:07.865Z,73.30
2019-05-01T09:00:07.541Z,73.30
2019-05-01T09:01:14.956Z,73.10
2019-05-01T09:02:10.059Z,73.20
2019-05-01T09:03:13.468Z,72.90
2019-05-01T09:04:13.458Z,72.50
2019-05-01T09:05:21.506Z,72.30
2019-05-01T09:06:05.026Z,72.50
2019-05-01T09:07:05.238Z,72.60
2019-05-01T09:08:10.749Z,72.30
2019-05-01T09:09:10.107Z,72.20
2019-05-01T09:10:09.634Z,72.10
2019-05-01T09:11:10.664Z,72.10
2019-05-01T09:12:11.723Z,72.20
2019-05-01T09:13:05.478Z,71.60
2019-05-01T09:14:10.923Z,71.60
2019-05-01T09:15:14.629Z,71.60
2019-05-01T09:16:07.339Z,71.50
2019-05-01T09:17:08.011Z,71.10
2019-05-01T09:18:11.164Z,71.00
2019-05-01T09:19:05.412Z,71.00
2019-05-01T09:20:10.784Z,71.00
2019-05-01T09:21:08.382Z,71.00
2019-05-01T09:22:05.659Z,70.90
2019-05-01T09:23:14.245Z,70.80
2019-05-01T09:24:05.630Z,70.60
2019-05-01T09:25:05.607Z,70.40
2019-05-01T09:26:14.920Z,70.20
2019-05-01T09:27:10.307Z,69.70
2019-05-01T09:28:07.569Z,69.50
2019-05-01T09:29:10.960Z,68.80
2019-05-01T09:30:05.338Z,68.40
2019-05-01T09:31:05.594Z,68.20
2019-05-01T09:32:11.938Z,67.30
2019-05-01T09:33:05.396Z,66.80
2019-05-01T09:34:13.931Z,66.90
2019-05-01T09:35:16.317Z,66.90
2019-05-01T09:36:05.546Z,65.70
2019-05-01T09:37:08.345Z,66.10
2019-05-01T09:38:05.536Z,66.10
2019-05-01T09:39:07.508Z,65.50
2019-05-01T09:40:10.397Z,64.40
2019-05-01T09:41:08.229Z,62.60
2019-05-01T09:42:07.991Z,61.60
2019-05-01T09:43:08.134Z,60.40
2019-05-01T09:44:10.603Z,60.20
2019-05-01T09:45:07.852Z,59.10
2019-05-01T09:46:11.049Z,59.00
2019-05-01T09:47:05.153Z,59.00
2019-05-01T09:48:05.373Z,58.70
2019-05-01T09:49:07.871Z,58.60
2019-05-01T09:50:05.053Z,58.80
2019-05-01T09:51:07.913Z,57.10
2019-05-01T09:52:05.410Z,57.10
2019-05-01T09:53:05.361Z,57.50
2019-05-01T09:54:10.942Z,57.40
2019-05-01T09:55:05.149Z,57.40
2019-05-01T09:56:08.937Z,57.60
2019-05-01T09:57:07.967Z,56.20
2019-05-01T09:58:05.053Z,56.20
2019-05-01T09:59:17.216Z,55.50
2019-05-01T10:00:10.880Z,55.10
2019-05-01T10:01:07.409Z,55.10
2019-05-01T10:02:09.287Z,54.40
2019-05-01T10:03:05.462Z,53.20
2019-05-01T10:04:09.944Z,53.60
2019-05-01T10:05:07.905Z,54.00
2019-05-01T10:06:07.871Z,53.00
2019-05-01T10:07:11.148Z,52.10
2019-05-01T10:08:07.350Z,52.10
2019-05-01T10:09:16.706Z,52.10
2019-05-01T10:10:11.442Z,47.70
2019-05-01T10:11:08.286Z,47.60
2019-05-01T10:12:14.258Z,42.60
2019-05-01T10:13:06.507Z,42.70
2019-05-01T10:14:09.252Z,42.30
2019-05-01T10:15:10.901Z,41.10
2019-05-01T10:16:12.486Z,39.70
2019-05-01T10:17:15.361Z,38.50
2019-05-01T10:18:08.655Z,38.50
2019-05-01T10:19:09.464Z,39.00
2019-05-01T10:20:11.763Z,38.60
2019-05-01T10:21:11.471Z,38.90
2019-05-01T10:22:07.581Z,39.00
2019-05-01T10:23:16.699Z,39.70
2019-05-01T10:24:06.593Z,39.70
2019-05-01T10:25:17.019Z,39.40
2019-05-01T10:26:08.480Z,39.30
2019-05-01T10:27:13.320Z,39.50
2019-05-01T10:28:18.217Z,38.90
2019-05-01T10:29:08.244Z,38.60
2019-05-01T10:30:11.267Z,38.60
2019-05-01T10:31:11.781Z,38.80
2019-05-01T10:32:08.202Z,39.10
2019-05-01T10:33:07.277Z,39.30
2019-05-01T10:34:11.150Z,38.80
2019-05-01T10:35:07.371Z,38.90
2019-05-01T10:36:09.922Z,37.50
2019-05-01T10:37:07.466Z,37.50
2019-05-01T10:38:10.768Z,38.70
2019-05-01T10:39:05.660Z,38.80
2019-05-01T10:40:07.506Z,38.90
2019-05-01T10:41:10.825Z,39.10
2019-05-01T10:42:13.976Z,37.60
2019-05-01T10:43:05.188Z,37.70
2019-05-01T10:44:11.221Z,37.70
2019-05-01T10:45:15.376Z,38.00
2019-05-01T10:46:08.454Z,38.00
2019-05-01T10:47:09.597Z,38.10
2019-05-01T10:48:11.949Z,38.80
2019-05-01T10:49:08.366Z,39.40
2019-05-01T10:50:08.771Z,39.40
2019-05-01T10:51:07.452Z,39.50
2019-05-01T10:52:14.660Z,39.00
2019-05-01T10:53:08.461Z,37.50
2019-05-01T10:54:08.228Z,37.30
2019-05-01T10:55:05.269Z,37.40
2019-05-01T10:56:05.401Z,38.10
2019-05-01T10:57:08.107Z,38.50
2019-05-01T10:58:07.935Z,38.50
2019-05-01T10:59:05.105Z,38.60
2019-05-01T11:00:05.316Z,38.80
2019-05-01T11:01:05.634Z,38.20
2019-05-01T11:02:10.956Z,37.30
2019-05-01T11:03:05.099Z,37.40
2019-05-01T11:04:05.313Z,37.20
2019-05-01T11:05:05.570Z,36.40
2019-05-01T11:06:07.875Z,35.40
2019-05-01T11:07:05.171Z,34.60
2019-05-01T11:08:07.466Z,34.90
2019-05-01T11:09:05.673Z,35.50
2019-05-01T11:10:05.180Z,35.60
2019-05-01T11:11:08.088Z,36.40
2019-05-01T11:12:05.194Z,36.40
2019-05-01T11:13:08.375Z,36.10
2019-05-01T11:14:10.757Z,35.90
2019-05-01T11:15:07.450Z,35.70
2019-05-01T11:16:05.755Z,35.60
2019-05-01T11:17:05.168Z,35.40
2019-05-01T11:18:07.897Z,34.40
2019-05-01T11:19:08.551Z,34.50
2019-05-01T11:20:08.189Z,33.50
2019-05-01T11:21:11.107Z,33.40
2019-05-01T11:22:05.347Z,33.40
2019-05-01T11:23:05.628Z,33.80
2019-05-01T11:24:07.440Z,33.00
2019-05-01T11:25:08.168Z,33.00
2019-05-01T11:26:07.987Z,33.50
2019-05-01T11:27:05.025Z,33.50
2019-05-01T11:28:07.948Z,33.70
2019-05-01T11:29:07.932Z,33.90
2019-05-01T11:30:10.989Z,33.90
2019-05-01T11:31:07.915Z,33.50
2019-05-01T11:32:05.085Z,33.50
2019-05-01T11:33:05.299Z,33.20
2019-05-01T11:34:07.956Z,33.30
2019-05-01T11:35:05.170Z,34.00
2019-05-01T11:36:13.824Z,34.20
2019-05-01T11:37:07.493Z,34.20
2019-05-01T11:38:08.199Z,34.10
2019-05-01T11:39:07.936Z,34.00
2019-05-01T11:40:11.020Z,33.70
2019-05-01T11:41:05.183Z,33.80
2019-05-01T11:42:05.496Z,34.00
2019-05-01T11:43:08.241Z,32.00
2019-05-01T11:44:10.492Z,32.00
2019-05-01T11:45:05.759Z,32.00
2019-05-01T11:46:07.925Z,32.50
2019-05-01T11:47:07.535Z,32.50
2019-05-01T11:48:05.635Z,32.00
2019-05-01T11:49:05.749Z,31.90
2019-05-01T11:50:05.042Z,32.30
2019-05-01T11:51:05.267Z,32.70
2019-05-01T11:52:05.664Z,33.00
2019-05-01T11:53:05.858Z,32.50
2019-05-01T11:54:05.738Z,30.80
2019-05-01T11:55:08.475Z,31.10
2019-05-01T11:56:08.025Z,30.00
2019-05-01T11:57:10.303Z,29.60
2019-05-01T11:58:08.155Z,29.00
2019-05-01T11:59:10.257Z,29.30
2019-05-01T12:00:05.226Z,29.30
2019-05-01T12:01:05.561Z,30.10
2019-05-01T12:02:05.851Z,30.10
2019-05-01T12:03:10.705Z,29.70
2019-05-01T12:04:08.384Z,29.30
2019-05-01T12:05:05.523Z,29.30
2019-05-01T12:06:07.462Z,30.00
2019-05-01T12:07:08.036Z,30.10
2019-05-01T12:08:05.219Z,29.90
2019-05-01T12:09:08.311Z,30.30
2019-05-01T12:10:08.035Z,29.60
2019-05-01T12:11:07.967Z,28.20
2019-05-01T12:12:05.106Z,28.10
2019-05-01T12:13:05.327Z,28.50
2019-05-01T12:14:05.468Z,29.50
2019-05-01T12:15:13.281Z,28.80
2019-05-01T12:16:08.039Z,29.80
2019-05-01T12:17:07.965Z,29.60
2019-05-01T12:18:05.095Z,29.60
2019-05-01T12:19:05.296Z,30.60
2019-05-01T12:20:08.117Z,31.30
2019-05-01T12:21:05.218Z,31.30
2019-05-01T12:22:09.633Z,32.40
2019-05-01T12:23:08.223Z,32.50
2019-05-01T12:24:05.401Z,32.50
2019-05-01T12:25:05.834Z,31.60
2019-05-01T12:26:07.925Z,32.00
2019-05-01T12:27:05.141Z,32.00
2019-05-01T12:28:05.322Z,31.80
2019-05-01T12:29:08.096Z,31.70
2019-05-01T12:30:05.344Z,31.70
2019-05-01T12:31:08.000Z,30.40
2019-05-01T12:32:04.988Z,30.40
2019-05-01T12:33:05.254Z,30.80
2019-05-01T12:34:08.058Z,31.20
2019-05-01T12:35:05.131Z,31.20
2019-05-01T12:36:05.360Z,31.50
2019-05-01T12:37:10.669Z,31.00
2019-05-01T12:38:05.742Z,31.00
2019-05-01T12:39:08.223Z,31.10
2019-05-01T12:40:05.302Z,31.20
2019-05-01T12:41:05.443Z,31.00
2019-05-01T12:42:05.558Z,30.50
2019-05-01T12:43:08.363Z,31.10
2019-05-01T12:44:05.458Z,31.20
2019-05-01T12:45:08.088Z,30.60
2019-05-01T12:46:05.225Z,30.00
2019-05-01T12:47:10.579Z,29.90
2019-05-01T12:48:08.242Z,29.20
2019-05-01T12:49:05.286Z,29.20
2019-05-01T12:50:05.583Z,29.80
2019-05-01T12:51:13.473Z,30.20
2019-05-01T12:52:11.125Z,30.20